Time;durP1;ratioP1;P1;durP2;ratioP2;P2;SDS_P1;SDS_P2;PMS_P1;PMS_P2;Temp;Humidity;BMP_temperature;BMP_pressure;BME280_temperature;BME280_humidity;BME280_pressure;Samples;Min_cycle;Max_cycle;Signal;HPM_P1;HPM_P2
2021/10/10 00:01:56;;;;;;;15.08;8.00;;;;;;;4.61;79.39;100486.78;1566634;90;21520;-64
2021/10/10 00:04:25;;;;;;;10.98;7.08;;;;;;;4.58;80.13;100483.16;1589031;89;21135;-64
2021/10/10 00:06:55;;;;;;;14.05;7.55;;;;;;;4.56;81.09;100477.87;1571398;90;21479;-64
2021/10/10 00:09:23;;;;;;;11.78;6.97;;;;;;;4.55;82.07;100480.01;1593699;89;21533;-64
2021/10/10 00:11:51;;;;;;;12.15;7.37;;;;;;;4.51;82.79;100474.19;1599341;88;21509;-64
2021/10/10 00:14:21;;;;;;;17.35;8.03;;;;;;;4.50;83.26;100471.52;1602845;88;21450;-64
2021/10/10 00:16:49;;;;;;;16.62;8.10;;;;;;;4.48;83.36;100467.95;1602141;88;21110;-64
2021/10/10 00:19:17;;;;;;;16.60;8.28;;;;;;;4.46;82.98;100467.89;1600704;89;21555;-64
2021/10/10 00:21:46;;;;;;;16.32;8.33;;;;;;;4.45;82.52;100467.42;1600332;89;21463;-65
2021/10/10 00:24:13;;;;;;;15.05;7.72;;;;;;;4.40;82.25;100468.55;1599824;89;21432;-64
2021/10/10 00:26:42;;;;;;;16.75;8.75;;;;;;;4.36;82.33;100467.06;1600693;89;21495;-64
2021/10/10 00:29:10;;;;;;;18.70;8.30;;;;;;;4.33;82.80;100464.33;1600654;88;21121;-64
2021/10/10 00:31:39;;;;;;;13.20;7.90;;;;;;;4.30;83.25;100473.34;1600566;89;21029;-64
2021/10/10 00:34:07;;;;;;;16.23;8.63;;;;;;;4.27;83.88;100464.97;1601372;88;20977;-64
2021/10/10 00:36:35;;;;;;;18.82;8.30;;;;;;;4.26;84.40;100462.30;1601793;89;20901;-64
2021/10/10 00:39:03;;;;;;;15.43;8.38;;;;;;;4.23;85.28;100455.62;1601725;88;21535;-65
2021/10/10 00:41:31;;;;;;;19.90;8.48;;;;;;;4.21;86.15;100458.16;1601841;88;21436;-64
2021/10/10 00:43:59;;;;;;;11.00;6.95;;;;;;;4.18;86.84;100454.13;1601832;88;20911;-64
2021/10/10 00:46:28;;;;;;;12.53;7.85;;;;;;;4.17;87.46;100454.06;1562462;89;21023;-64
2021/10/10 00:48:56;;;;;;;19.10;7.95;;;;;;;4.17;87.97;100457.98;1601856;88;21533;-64
2021/10/10 00:51:24;;;;;;;16.73;8.03;;;;;;;4.17;88.36;100455.38;1601839;88;21430;-64
2021/10/10 00:53:52;;;;;;;16.50;8.15;;;;;;;4.11;88.93;100446.46;1601284;88;21096;-64
2021/10/10 00:56:23;;;;;;;14.45;8.50;;;;;;;4.10;89.31;100443.79;1582427;88;21498;-64
2021/10/10 00:58:51;;;;;;;13.08;7.65;;;;;;;4.09;89.73;100444.62;1601685;88;21474;-64
2021/10/10 01:01:19;;;;;;;16.55;7.92;;;;;;;4.07;90.07;100447.17;1601810;88;21512;-64
2021/10/10 01:03:48;;;;;;;12.40;8.00;;;;;;;4.07;90.52;100441.05;1602026;88;20907;-64
2021/10/10 01:06:16;;;;;;;13.48;7.58;;;;;;;4.05;91.02;100443.61;1601459;88;21446;-64
2021/10/10 01:08:44;;;;;;;25.32;9.83;;;;;;;4.04;91.49;100442.23;1601471;88;20927;-64
2021/10/10 01:11:13;;;;;;;22.48;8.93;;;;;;;4.03;92.02;100440.45;1601708;87;21410;-65
2021/10/10 01:13:41;;;;;;;13.93;7.90;;;;;;;4.03;92.62;100446.57;1601661;88;21027;-64
2021/10/10 01:16:10;;;;;;;15.55;8.08;;;;;;;4.00;93.17;100437.72;1581130;88;21054;-65
2021/10/10 01:18:38;;;;;;;17.45;8.88;;;;;;;4.00;93.51;100441.64;1592693;88;21479;-65
2021/10/10 01:21:06;;;;;;;15.80;8.60;;;;;;;3.98;93.83;100440.69;1592259;88;21470;-65
2021/10/10 01:23:35;;;;;;;17.50;8.25;;;;;;;3.96;93.87;100443.23;1592313;89;20987;-65
2021/10/10 01:26:02;;;;;;;16.15;8.38;;;;;;;3.98;93.58;100440.69;1592261;88;21039;-64
2021/10/10 01:28:31;;;;;;;12.35;8.20;;;;;;;3.97;93.30;100446.73;1592492;88;20928;-65
2021/10/10 01:30:59;;;;;;;11.00;7.42;;;;;;;3.96;93.22;100448.88;1596861;88;21143;-64
2021/10/10 01:33:27;;;;;;;16.85;8.85;;;;;;;3.94;93.48;100450.53;1597575;89;21084;-65
2021/10/10 01:35:55;;;;;;;14.43;8.70;;;;;;;3.93;93.72;100446.13;1596337;89;20888;-65
2021/10/10 01:38:23;;;;;;;16.87;8.15;;;;;;;3.91;93.90;100447.79;1595451;88;21042;-65
2021/10/10 01:40:50;;;;;;;14.90;8.45;;;;;;;3.92;94.18;100446.97;1594253;88;20971;-65
2021/10/10 01:43:18;;;;;;;17.95;8.00;;;;;;;3.92;94.55;100442.63;1592831;88;21065;-64
2021/10/10 01:45:46;;;;;;;15.98;8.55;;;;;;;3.91;95.41;100440.85;1593136;88;20971;-64
2021/10/10 01:48:15;;;;;;;14.43;8.68;;;;;;;3.92;95.99;100443.05;1573691;88;21495;-64
2021/10/10 01:50:42;;;;;;;13.48;8.33;;;;;;;3.91;96.36;100445.19;1592622;88;21035;-64
2021/10/10 01:53:10;;;;;;;13.70;8.75;;;;;;;3.89;96.39;100447.73;1592335;88;21454;-64
2021/10/10 01:55:38;;;;;;;14.43;8.33;;;;;;;3.87;96.36;100446.77;1592453;88;21036;-64
2021/10/10 01:58:08;;;;;;;17.10;8.08;;;;;;;3.84;96.21;100449.67;1592114;88;20949;-64
2021/10/10 02:00:35;;;;;;;16.93;8.90;;;;;;;3.83;95.95;100450.50;1592385;89;20932;-66
2021/10/10 02:03:03;;;;;;;15.70;8.85;;;;;;;3.81;95.86;100451.74;1581797;89;20959;-65
2021/10/10 02:05:32;;;;;;;15.10;8.93;;;;;;;3.79;96.07;100442.55;1592842;88;21582;-64
2021/10/10 02:07:59;;;;;;;17.48;9.10;;;;;;;3.78;96.33;100450.28;1592898;88;21726;-64
2021/10/10 02:10:27;;;;;;;34.27;8.70;;;;;;;3.78;96.61;100451.20;1593063;88;20975;-64
2021/10/10 02:12:55;;;;;;;13.13;8.45;;;;;;;3.77;96.68;100451.11;1590905;89;21477;-64
2021/10/10 02:15:22;;;;;;;13.78;8.35;;;;;;;3.75;96.78;100453.66;1587966;90;20940;-64
2021/10/10 02:17:50;;;;;;;12.98;8.45;;;;;;;3.73;97.00;100443.56;1588182;89;20893;-64
2021/10/10 02:20:18;;;;;;;15.13;8.80;;;;;;;3.73;97.32;100443.98;1588111;90;21919;-64
2021/10/10 02:22:46;;;;;;;16.10;8.98;;;;;;;3.71;97.74;100441.72;1587136;89;20878;-64
2021/10/10 02:25:15;;;;;;;17.57;9.38;;;;;;;3.70;98.21;100444.73;1587461;89;21544;-64
2021/10/10 02:27:45;;;;;;;17.55;9.63;;;;;;;3.70;98.43;100440.83;1586959;89;20983;-65
2021/10/10 02:30:12;;;;;;;16.95;9.13;;;;;;;3.69;98.57;100443.38;1587864;90;21084;-64
2021/10/10 02:32:41;;;;;;;14.95;8.95;;;;;;;3.68;98.56;100438.98;1577164;89;21934;-64
2021/10/10 02:35:10;;;;;;;16.07;9.95;;;;;;;3.66;98.51;100433.70;1577927;90;20893;-64
2021/10/10 02:37:37;;;;;;;14.10;9.13;;;;;;;3.64;98.54;100432.74;1577677;89;21032;-64
2021/10/10 02:40:07;;;;;;;17.30;9.10;;;;;;;3.62;98.68;100434.40;1576693;89;21555;-64
2021/10/10 02:42:36;;;;;;;16.45;9.65;;;;;;;3.61;98.83;100433.92;1577449;89;21000;-64
2021/10/10 02:45:06;;;;;;;15.23;9.50;;;;;;;3.61;99.25;100443.47;1576009;91;21124;-63
2021/10/10 02:47:35;;;;;;;15.05;9.08;;;;;;;3.59;99.71;100439.48;1575784;89;21046;-64
2021/10/10 02:50:06;;;;;;;15.75;8.95;;;;;;;3.57;100.00;100446.36;1576714;89;20929;-64
2021/10/10 02:52:33;;;;;;;16.55;9.08;;;;;;;3.58;100.00;100440.73;1577319;89;21511;-65
2021/10/10 02:55:03;;;;;;;18.42;9.28;;;;;;;3.58;100.00;100442.92;1579184;90;20925;-65
2021/10/10 02:57:31;;;;;;;13.78;8.38;;;;;;;3.58;100.00;100443.34;1577124;90;21099;-64
2021/10/10 02:59:58;;;;;;;15.68;8.78;;;;;;;3.58;100.00;100441.62;1576263;89;20953;-64
2021/10/10 03:02:26;;;;;;;15.15;8.73;;;;;;;3.57;100.00;100443.75;1576671;91;20984;-64
2021/10/10 03:04:54;;;;;;;15.38;9.30;;;;;;;3.57;100.00;100441.55;1577609;89;20996;-64
2021/10/10 03:07:22;;;;;;;18.87;8.95;;;;;;;3.56;100.00;100439.77;1576659;90;21496;-63
2021/10/10 03:09:51;;;;;;;14.45;8.75;;;;;;;3.56;100.00;100443.69;1577189;89;21468;-64
2021/10/10 03:12:18;;;;;;;14.90;9.25;;;;;;;3.54;100.00;100439.70;1584585;88;21015;-65
2021/10/10 03:14:46;;;;;;;15.05;9.23;;;;;;;3.54;100.00;100442.73;1597504;89;21019;-64
2021/10/10 03:17:13;;;;;;;16.85;8.85;;;;;;;3.53;100.00;100440.53;1597402;89;20972;-64
2021/10/10 03:19:41;;;;;;;19.57;10.00;;;;;;;3.51;100.00;100441.30;1597900;88;21003;-65
2021/10/10 03:22:09;;;;;;;15.20;9.48;;;;;;;3.50;100.00;100439.09;1597857;88;21102;-63
2021/10/10 03:24:37;;;;;;;16.82;9.18;;;;;;;3.49;100.00;100434.70;1597575;88;21430;-65
2021/10/10 03:27:04;;;;;;;17.23;9.55;;;;;;;3.48;100.00;100439.45;1597439;88;21446;-65
2021/10/10 03:29:32;;;;;;;19.98;9.88;;;;;;;3.45;100.00;100436.71;1595630;88;21469;-63
2021/10/10 03:32:00;;;;;;;19.10;9.13;;;;;;;3.43;100.00;100435.34;1593601;89;20899;-64
2021/10/10 03:34:28;;;;;;;15.95;9.38;;;;;;;3.41;100.00;100431.78;1591703;89;21981;-64
2021/10/10 03:36:57;;;;;;;16.70;10.15;;;;;;;3.40;100.00;100439.53;1590745;88;20921;-64
2021/10/10 03:39:24;;;;;;;22.02;9.55;;;;;;;3.36;100.00;100438.52;1594697;88;20983;-64
2021/10/10 03:41:53;;;;;;;18.27;9.53;;;;;;;3.33;100.00;100444.02;1598819;88;21454;-64
2021/10/10 03:44:21;;;;;;;18.67;9.95;;;;;;;3.31;100.00;100439.11;1598919;88;21418;-65
2021/10/10 03:46:48;;;;;;;17.00;10.13;;;;;;;3.29;100.00;100434.23;1599145;88;21164;-63
2021/10/10 03:49:16;;;;;;;18.25;9.23;;;;;;;3.27;100.00;100438.50;1598695;88;20898;-64
2021/10/10 03:51:44;;;;;;;16.00;9.18;;;;;;;3.25;100.00;100436.23;1598428;88;21069;-64
2021/10/10 03:56:52;;;;;;;18.70;9.85;;;;;;;3.21;100.00;100436.92;1599129;88;20967;-64
2021/10/10 03:59:22;;;;;;;18.25;9.35;;;;;;;3.20;100.00;100440.36;1599019;88;21491;-64
2021/10/10 04:01:50;;;;;;;18.32;10.10;;;;;;;3.18;100.00;100442.91;1598886;88;20912;-64
2021/10/10 04:04:18;;;;;;;17.98;9.60;;;;;;;3.16;100.00;100448.46;1598797;88;20983;-65
2021/10/10 04:06:46;;;;;;;22.62;10.25;;;;;;;3.14;100.00;100442.29;1599064;88;21534;-64
2021/10/10 04:09:14;;;;;;;28.80;10.48;;;;;;;3.15;100.00;100454.09;1598935;88;21069;-63
2021/10/10 04:11:42;;;;;;;15.20;9.68;;;;;;;3.14;100.00;100454.91;1599062;88;21118;-64
2021/10/10 04:14:10;;;;;;;19.80;9.53;;;;;;;3.15;100.00;100458.00;1589663;88;20932;-65
2021/10/10 04:16:37;;;;;;;23.80;10.58;;;;;;;3.16;100.00;100465.00;1571456;89;21037;-65
2021/10/10 04:19:05;;;;;;;17.27;10.18;;;;;;;3.19;100.00;100464.23;1575648;88;21022;-64
2021/10/10 04:21:34;;;;;;;16.17;10.58;;;;;;;3.19;100.00;100461.63;1573041;90;20928;-65
2021/10/10 04:24:02;;;;;;;18.35;9.80;;;;;;;3.21;100.00;100457.79;1587100;88;21104;-64
2021/10/10 04:26:30;;;;;;;19.48;10.25;;;;;;;3.20;100.00;100462.52;1589741;88;20990;-65
2021/10/10 04:28:57;;;;;;;17.05;10.38;;;;;;;3.19;100.00;100453.81;1591482;88;20991;-64
2021/10/10 04:31:26;;;;;;;16.32;10.03;;;;;;;3.17;100.00;100451.55;1592529;89;21454;-64
2021/10/10 04:33:53;;;;;;;16.90;9.83;;;;;;;3.19;100.00;100462.94;1592603;89;21515;-64
2021/10/10 04:36:21;;;;;;;24.90;10.93;;;;;;;3.18;100.00;100449.83;1592269;89;21062;-64
2021/10/10 04:38:49;;;;;;;24.52;10.75;;;;;;;3.16;100.00;100445.44;1573407;89;21039;-63
2021/10/10 04:41:16;;;;;;;20.40;9.80;;;;;;;3.14;100.00;100451.00;1554085;91;21112;-63
2021/10/10 04:43:45;;;;;;;43.30;11.95;;;;;;;3.15;100.00;100447.57;1553496;90;21050;-64
2021/10/10 04:46:12;;;;;;;25.15;10.35;;;;;;;3.15;100.00;100450.17;1586882;88;21066;-64
2021/10/10 04:48:40;;;;;;;18.52;10.40;;;;;;;3.16;100.00;100452.38;1566805;88;21112;-63
2021/10/10 04:51:08;;;;;;;23.25;11.38;;;;;;;3.16;100.00;100454.98;1553786;90;21535;-63
2021/10/10 04:53:36;;;;;;;19.62;11.78;;;;;;;3.17;100.00;100452.85;1556555;90;20936;-63
2021/10/10 04:56:04;;;;;;;17.75;10.78;;;;;;;3.20;100.00;100456.00;1558663;89;21050;-64
2021/10/10 04:58:32;;;;;;;17.37;10.72;;;;;;;3.18;100.00;100454.63;1550769;90;21484;-64
2021/10/10 05:01:00;;;;;;;19.12;11.48;;;;;;;3.20;100.00;100457.31;1553418;91;21131;-64
2021/10/10 05:03:29;;;;;;;17.05;10.48;;;;;;;3.21;100.00;100454.77;1555731;90;20914;-64
2021/10/10 05:05:57;;;;;;;17.60;11.12;;;;;;;3.20;100.00;100458.20;1571799;88;20931;-64
2021/10/10 05:08:24;;;;;;;22.20;11.95;;;;;;;3.21;100.00;100461.28;1572340;88;20993;-64
2021/10/10 05:10:52;;;;;;;20.15;10.70;;;;;;;3.22;100.00;100457.86;1586626;88;21090;-64
2021/10/10 05:13:20;;;;;;;18.17;11.30;;;;;;;3.25;100.00;100467.53;1593374;87;21822;-63
2021/10/10 05:15:48;;;;;;;21.57;12.05;;;;;;;3.27;100.00;100465.88;1594872;88;20968;-64
2021/10/10 05:18:15;;;;;;;19.37;11.57;;;;;;;3.28;100.00;100468.97;1596764;88;21008;-63
2021/10/10 05:20:43;;;;;;;19.20;11.57;;;;;;;3.31;100.00;100469.09;1597499;88;20927;-63
2021/10/10 05:23:14;;;;;;;19.80;11.33;;;;;;;3.32;100.00;100477.02;1597595;88;21036;-64
2021/10/10 05:25:40;;;;;;;20.30;11.93;;;;;;;3.35;100.00;100484.09;1597289;88;21109;-63
2021/10/10 05:28:07;;;;;;;19.57;12.18;;;;;;;3.36;100.00;100480.25;1595799;88;20892;-63
2021/10/10 05:30:35;;;;;;;19.92;11.88;;;;;;;3.39;100.00;100482.98;1591545;88;21011;-63
2021/10/10 05:33:04;;;;;;;20.23;11.15;;;;;;;3.41;100.00;100486.55;1597620;88;20999;-64
2021/10/10 05:35:32;;;;;;;17.00;10.58;;;;;;;3.45;100.00;100488.88;1597118;88;20934;-64
2021/10/10 05:38:00;;;;;;;17.57;11.00;;;;;;;3.49;100.00;100492.10;1593015;88;21117;-63
2021/10/10 05:40:27;;;;;;;19.12;11.35;;;;;;;3.55;100.00;100491.06;1594368;88;20973;-63
2021/10/10 05:42:55;;;;;;;19.07;11.08;;;;;;;3.62;100.00;100498.33;1593734;88;21467;-66
2021/10/10 05:45:24;;;;;;;20.82;10.95;;;;;;;3.68;100.00;100482.93;1590811;88;21037;-63
2021/10/10 05:47:52;;;;;;;20.75;10.98;;;;;;;3.75;100.00;100485.38;1594501;88;20974;-64
2021/10/10 05:50:20;;;;;;;21.20;12.33;;;;;;;3.81;100.00;100480.45;1598709;88;21983;-64
2021/10/10 05:52:50;;;;;;;19.95;10.50;;;;;;;3.90;100.00;100486.47;1598603;89;21465;-64
2021/10/10 05:55:21;;;;;;;21.25;11.15;;;;;;;3.94;100.00;100482.75;1598730;88;21034;-64
2021/10/10 05:57:50;;;;;;;23.57;12.15;;;;;;;4.02;100.00;100488.28;1598690;88;20923;-64
2021/10/10 06:00:19;;;;;;;18.00;11.20;;;;;;;4.06;100.00;100491.08;1598623;88;21521;-63
2021/10/10 06:02:48;;;;;;;16.75;10.85;;;;;;;4.13;100.00;100486.11;1598721;89;21143;-64
2021/10/10 06:05:16;;;;;;;17.50;11.78;;;;;;;4.19;100.00;100483.75;1598457;89;21417;-64
2021/10/10 06:07:44;;;;;;;18.55;10.95;;;;;;;4.24;100.00;100477.87;1598671;88;21493;-63
2021/10/10 06:10:13;;;;;;;19.55;11.40;;;;;;;4.30;100.00;100483.38;1587269;88;21516;-64
2021/10/10 06:12:42;;;;;;;20.12;11.43;;;;;;;4.36;100.00;100489.27;1595260;88;21485;-64
2021/10/10 06:15:10;;;;;;;22.30;11.68;;;;;;;4.41;100.00;100486.42;1598901;87;21132;-64
2021/10/10 06:17:37;;;;;;;19.75;10.90;;;;;;;4.45;100.00;100483.09;1598397;87;21034;-65
2021/10/10 06:20:06;;;;;;;25.25;11.85;;;;;;;4.50;100.00;100484.58;1600431;87;21469;-64
2021/10/10 06:22:36;;;;;;;23.07;12.05;;;;;;;4.55;100.00;100486.55;1601283;87;20925;-66
2021/10/10 06:25:04;;;;;;;22.55;11.88;;;;;;;4.60;100.00;100481.08;1600529;87;20985;-65
2021/10/10 06:27:33;;;;;;;22.73;12.90;;;;;;;4.67;100.00;100475.25;1601149;88;21951;-64
2021/10/10 06:30:01;;;;;;;23.07;12.65;;;;;;;4.77;100.00;100470.41;1601640;88;21562;-64
2021/10/10 06:32:29;;;;;;;22.77;12.30;;;;;;;4.87;100.00;100478.66;1601167;88;21020;-63
2021/10/10 06:34:57;;;;;;;22.13;13.08;;;;;;;4.96;100.00;100470.27;1597896;89;21491;-63
2021/10/10 06:37:24;;;;;;;25.20;13.20;;;;;;;5.04;100.00;100472.33;1599374;88;20919;-63
2021/10/10 06:39:51;;;;;;;24.65;11.95;;;;;;;5.16;100.00;100467.07;1601653;88;21143;-63
2021/10/10 06:42:19;;;;;;;29.40;12.60;;;;;;;5.27;100.00;100470.58;1601321;87;20948;-63
2021/10/10 06:44:46;;;;;;;20.45;12.03;;;;;;;5.38;100.00;100467.93;1601476;87;21457;-63
2021/10/10 06:47:15;;;;;;;24.67;11.90;;;;;;;5.51;100.00;100467.05;1582163;87;20926;-63
2021/10/10 06:49:42;;;;;;;18.67;11.73;;;;;;;5.60;100.00;100468.68;1600039;87;20987;-64
2021/10/10 06:52:09;;;;;;;36.77;12.43;;;;;;;5.69;100.00;100467.30;1600101;87;21170;-63
2021/10/10 06:54:37;;;;;;;19.87;11.95;;;;;;;5.83;100.00;100468.19;1599497;88;20869;-65
2021/10/10 06:57:04;;;;;;;19.02;11.18;;;;;;;5.95;100.00;100467.31;1600013;87;20957;-65
2021/10/10 06:59:32;;;;;;;20.30;11.20;;;;;;;6.09;100.00;100466.05;1599583;87;21532;-67
2021/10/10 07:01:59;;;;;;;19.40;11.88;;;;;;;6.23;100.00;100466.52;1601719;88;21011;-64
2021/10/10 07:04:27;;;;;;;18.27;11.33;;;;;;;6.37;100.00;100463.91;1602138;88;21122;-65
2021/10/10 07:06:54;;;;;;;15.98;9.85;;;;;;;6.51;100.00;100463.03;1603712;88;21440;-65
2021/10/10 07:09:22;;;;;;;16.80;9.30;;;;;;;6.65;100.00;100463.48;1599750;87;20910;-64
2021/10/10 07:11:50;;;;;;;17.50;9.15;;;;;;;6.79;100.00;100458.23;1611724;88;20885;-65
2021/10/10 07:14:18;;;;;;;17.87;9.13;;;;;;;6.92;97.98;100453.39;1612304;88;20961;-63
2021/10/10 07:16:46;;;;;;;14.18;8.73;;;;;;;7.09;95.41;100450.36;1612665;88;21101;-65
2021/10/10 07:19:22;;;;;;;18.95;8.80;;;;;;;7.23;93.77;100443.80;1612030;88;21487;-65
2021/10/10 07:21:55;;;;;;;19.00;9.05;;;;;;;7.39;91.91;100443.80;1598247;89;20941;-66
2021/10/10 07:26:59;;;;;;;15.85;8.50;;;;;;;7.69;87.78;100441.13;1597236;87;20982;-67
2021/10/10 07:29:27;;;;;;;29.27;9.10;;;;;;;7.86;86.05;100435.88;1586305;88;21135;-67
2021/10/10 07:31:55;;;;;;;12.23;8.20;;;;;;;8.01;84.59;100436.25;1599568;88;20926;-66
2021/10/10 07:34:22;;;;;;;15.32;8.50;;;;;;;8.17;82.79;100435.80;1600781;88;21445;-67
2021/10/10 07:36:49;;;;;;;11.38;8.05;;;;;;;8.31;80.65;100437.44;1598441;89;20934;-67
2021/10/10 07:39:17;;;;;;;12.98;8.13;;;;;;;8.46;78.92;100440.88;1598263;89;20926;-67
2021/10/10 07:41:45;;;;;;;19.02;8.50;;;;;;;8.60;76.90;100435.53;1598336;89;21119;-67
2021/10/10 07:44:13;;;;;;;12.73;7.00;;;;;;;8.74;74.48;100435.84;1599382;87;20966;-66
2021/10/10 07:46:42;;;;;;;11.95;7.22;;;;;;;8.88;72.52;100430.87;1601671;87;20949;-66
2021/10/10 07:49:09;;;;;;;13.43;7.25;;;;;;;9.01;71.17;100432.92;1601335;87;20981;-67
2021/10/10 07:51:37;;;;;;;11.20;6.12;;;;;;;9.14;68.86;100430.58;1601539;87;20938;-64
2021/10/10 07:54:04;;;;;;;12.88;6.60;;;;;;;9.27;67.41;100430.38;1601411;87;21454;-66
2021/10/10 07:56:32;;;;;;;12.68;7.15;;;;;;;9.42;65.85;100427.16;1600477;87;20914;-66
2021/10/10 07:58:59;;;;;;;13.58;7.25;;;;;;;9.56;64.39;100430.08;1601155;87;20949;-66
2021/10/10 08:01:27;;;;;;;12.55;6.70;;;;;;;9.71;62.97;100426.39;1607653;87;20973;-65
2021/10/10 08:03:54;;;;;;;11.30;6.53;;;;;;;9.85;61.87;100422.68;1611014;88;21017;-65
2021/10/10 08:06:24;;;;;;;8.73;5.95;;;;;;;10.01;60.99;100423.42;1610832;88;21116;-65
2021/10/10 08:08:52;;;;;;;11.80;7.33;;;;;;;10.15;60.14;100421.89;1610562;88;20932;-66
2021/10/10 08:11:23;;;;;;;95.83;13.43;;;;;;;10.30;59.11;100422.16;1610993;88;20937;-67
2021/10/10 08:13:51;;;;;;;15.97;6.70;;;;;;;10.46;57.99;100427.27;1610822;88;20921;-64
2021/10/10 08:16:19;;;;;;;11.38;7.45;;;;;;;10.59;57.00;100415.13;1610906;88;20910;-64
2021/10/10 08:18:47;;;;;;;13.95;7.33;;;;;;;10.72;55.87;100417.06;1610730;88;21488;-66
2021/10/10 08:21:15;;;;;;;13.98;7.72;;;;;;;10.84;54.90;100416.34;1602740;88;20891;-64
2021/10/10 08:23:44;;;;;;;42.58;9.93;;;;;;;10.95;54.21;100406.41;1603145;89;20981;-65
2021/10/10 08:26:11;;;;;;;20.85;6.92;;;;;;;11.08;53.53;100406.11;1598998;88;20928;-64
2021/10/10 08:28:39;;;;;;;14.03;7.47;;;;;;;11.20;52.90;100404.05;1602479;87;21555;-65
2021/10/10 08:31:07;;;;;;;11.95;6.47;;;;;;;11.31;52.14;100399.77;1600295;88;21502;-62
2021/10/10 08:33:38;;;;;;;16.93;6.65;;;;;;;11.44;51.54;100399.49;1596887;90;20961;-62
2021/10/10 08:36:08;;;;;;;11.85;6.45;;;;;;;11.55;51.15;100397.84;1598071;88;20885;-65
2021/10/10 08:38:36;;;;;;;19.23;7.62;;;;;;;11.68;50.37;100397.08;1597956;89;21003;-67
2021/10/10 08:41:05;;;;;;;19.10;7.45;;;;;;;11.80;49.73;100390.62;1597900;89;20885;-66
2021/10/10 08:43:37;;;;;;;11.63;7.22;;;;;;;11.92;49.37;100393.39;1598165;88;21122;-68
2021/10/10 08:46:06;;;;;;;14.10;8.03;;;;;;;12.04;48.91;100391.28;1601038;88;20976;-66
2021/10/10 08:48:34;;;;;;;14.80;7.70;;;;;;;12.16;48.36;100390.05;1601617;88;20995;-65
2021/10/10 08:51:02;;;;;;;17.90;8.43;;;;;;;12.29;48.09;100385.29;1601287;88;20920;-64
2021/10/10 08:53:30;;;;;;;31.52;9.38;;;;;;;12.40;47.57;100385.39;1599235;89;21533;-65
2021/10/10 08:56:00;;;;;;;13.58;7.58;;;;;;;12.53;47.12;100387.67;1598160;88;21725;-65
2021/10/10 08:58:35;;;;;;;17.62;8.55;;;;;;;12.64;46.72;100383.31;1601570;87;20945;-65
2021/10/10 09:01:04;;;;;;;18.32;8.60;;;;;;;12.76;46.33;100375.87;1586566;89;21011;-65
2021/10/10 09:03:30;;;;;;;;;;;;;;;12.88;45.89;100371.54;1595329;89;20987;-66
2021/10/10 09:06:00;;;;;;;17.27;8.30;;;;;;;13.01;45.58;100375.56;1593735;89;20127;-65
2021/10/10 09:08:27;;;;;;;24.43;8.75;;;;;;;13.11;45.31;100366.31;1601152;88;21284;-64
2021/10/10 09:10:59;;;;;;;19.37;8.70;;;;;;;13.23;45.26;100362.41;1586460;88;20916;-66
2021/10/10 09:13:34;;;;;;;12.80;8.30;;;;;;;13.37;44.78;100361.14;1598260;88;21474;-66
2021/10/10 09:16:02;;;;;;;37.28;10.45;;;;;;;13.50;44.24;100355.42;1599030;88;20963;-65
2021/10/10 09:18:41;;;;;;;37.88;10.43;;;;;;;13.61;43.56;100355.43;1601489;88;20943;-67
2021/10/10 09:21:27;;;;;;;22.40;7.72;;;;;;;13.71;43.34;100358.08;1601612;87;21083;-69
2021/10/10 09:23:53;;;;;;;15.72;8.50;;;;;;;13.84;43.11;100351.93;1598387;87;20918;-67
2021/10/10 09:26:22;;;;;;;39.27;11.70;;;;;;;13.98;42.69;100347.94;1592495;89;20985;-68
2021/10/10 09:28:49;;;;;;;28.12;8.93;;;;;;;14.08;42.22;100343.06;1600934;87;20940;-66
2021/10/10 09:31:17;;;;;;;17.48;7.37;;;;;;;14.20;41.77;100334.67;1600598;87;21048;-66
2021/10/10 09:33:50;;;;;;;77.25;13.58;;;;;;;14.32;41.28;100346.59;1601523;87;21145;-60
2021/10/10 09:36:24;;;;;;;16.75;7.42;;;;;;;14.43;40.71;100338.19;1602176;87;21560;-61
2021/10/10 09:41:37;;;;;;;36.60;9.40;;;;;;;14.65;40.01;100341.20;1597517;89;20995;-62
2021/10/10 09:44:17;;;;;;;59.75;10.20;;;;;;;14.77;39.48;100345.62;1596553;88;20976;-62
2021/10/10 09:46:46;;;;;;;28.20;7.67;;;;;;;14.90;39.33;100341.13;1598019;88;21100;-62
2021/10/10 09:49:34;;;;;;;19.32;6.83;;;;;;;15.02;38.98;100339.74;1596548;89;20956;-62
2021/10/10 09:52:12;;;;;;;33.28;8.58;;;;;;;15.13;38.48;100336.58;1597306;88;20968;-62
2021/10/10 09:54:57;;;;;;;38.92;10.48;;;;;;;15.22;37.89;100340.98;1595674;89;21511;-68
2021/10/10 09:57:33;;;;;;;29.98;7.42;;;;;;;15.31;37.70;100338.27;1596381;88;20928;-63
2021/10/10 09:59:56;;;;;;;29.60;6.03;;;;;;;15.41;37.84;100336.87;1595260;89;21120;-64
2021/10/10 10:02:42;;;;;;;11.50;5.03;;;;;;;15.53;38.01;100331.03;1588114;88;20928;-63
2021/10/10 10:05:26;;;;;;;44.42;7.97;;;;;;;15.64;37.92;100338.09;1594412;89;21484;-66
2021/10/10 10:07:54;;;;;;;66.50;10.18;;;;;;;15.77;37.64;100344.20;1595785;89;20909;-62
2021/10/10 10:10:22;;;;;;;92.17;11.08;;;;;;;15.88;37.46;100334.79;1593785;89;21068;-63
2021/10/10 10:12:50;;;;;;;84.45;14.87;;;;;;;15.98;37.14;100335.14;1596787;89;21507;-67
2021/10/10 10:15:25;;;;;;;45.78;10.82;;;;;;;16.05;36.77;100331.08;1596811;88;21087;-68
2021/10/10 10:17:55;;;;;;;37.80;8.88;;;;;;;16.11;36.47;100330.17;1592225;89;20939;-68
2021/10/10 10:20:24;;;;;;;43.58;10.90;;;;;;;16.19;36.08;100327.42;1598157;89;20933;-68
2021/10/10 10:22:53;;;;;;;16.85;7.67;;;;;;;16.26;35.78;100318.03;1599003;89;21084;-67
2021/10/10 10:25:22;;;;;;;39.38;10.65;;;;;;;16.36;35.68;100325.47;1598247;89;21108;-67
2021/10/10 10:27:51;;;;;;;16.42;6.03;;;;;;;16.47;35.53;100327.56;1598378;89;21051;-68
2021/10/10 10:30:19;;;;;;;15.58;6.05;;;;;;;16.59;35.19;100323.91;1600101;89;20969;-68
2021/10/10 10:32:47;;;;;;;21.42;6.95;;;;;;;16.68;34.90;100331.81;1595370;89;21021;-61
2021/10/10 10:35:18;;;;;;;9.58;5.22;;;;;;;16.87;34.63;100329.80;1594652;88;21012;-62
2021/10/10 10:37:49;;;;;;;10.20;4.58;;;;;;;16.87;34.63;100329.80;1600890;87;21163;-62
2021/10/10 10:40:29;;;;;;;13.25;4.72;;;;;;;16.96;34.04;100328.34;1598016;88;20924;-70
2021/10/10 10:43:00;;;;;;;15.03;4.67;;;;;;;17.06;33.71;100330.02;1599184;89;20972;-66
2021/10/10 10:45:35;;;;;;;15.88;4.78;;;;;;;17.12;33.55;100323.27;1598791;89;20985;-65
2021/10/10 10:48:32;;;;;;;18.40;4.10;;;;;;;17.24;33.33;100324.87;1594022;89;20937;-64
2021/10/10 10:51:23;;;;;;;6.55;3.72;;;;;;;17.34;32.90;100322.50;1593641;89;21206;-66
2021/10/10 10:53:52;;;;;;;14.05;3.72;;;;;;;17.40;32.27;100318.86;1596823;89;20940;-64
2021/10/10 10:56:33;;;;;;;18.82;4.28;;;;;;;17.47;31.97;100325.86;1598034;89;20937;-65
2021/10/10 10:59:01;;;;;;;8.55;3.92;;;;;;;17.54;31.72;100322.22;1597363;89;21515;-64
2021/10/10 11:02:02;;;;;;;11.95;3.87;;;;;;;17.62;31.46;100322.52;1597806;89;20966;-66
2021/10/10 11:04:30;;;;;;;50.75;7.42;;;;;;;17.72;31.21;100313.06;1598702;89;21400;-67
2021/10/10 11:07:00;;;;;;;12.50;3.85;;;;;;;17.79;30.85;100313.39;1597287;89;20869;-64
2021/10/10 11:09:30;;;;;;;9.13;3.98;;;;;;;17.83;30.72;100315.09;1598806;89;21012;-66
2021/10/10 11:12:00;;;;;;;27.40;5.53;;;;;;;17.89;30.56;100316.33;1594857;89;21496;-64
2021/10/10 11:14:30;;;;;;;15.68;4.22;;;;;;;17.93;30.36;100316.70;1594355;89;20996;-65
2021/10/10 11:17:05;;;;;;;25.50;6.25;;;;;;;17.99;30.13;100306.41;1594380;88;21135;-65
2021/10/10 11:19:35;;;;;;;34.98;7.28;;;;;;;18.08;29.98;100309.78;1594375;89;20957;-67
2021/10/10 11:22:03;;;;;;;35.43;7.37;;;;;;;18.18;29.93;100299.81;1588894;89;20980;-65
2021/10/10 11:24:32;;;;;;;34.48;6.20;;;;;;;18.27;29.85;100292.95;1598000;87;20972;-66
2021/10/10 11:27:00;;;;;;;25.45;6.65;;;;;;;18.36;29.75;100301.25;1598653;89;21441;-64
2021/10/10 11:29:29;;;;;;;23.95;6.08;;;;;;;18.39;29.52;100299.39;1568661;89;21137;-64
2021/10/10 11:32:00;;;;;;;8.53;3.77;;;;;;;18.42;29.33;100301.13;1594911;88;21103;-65
2021/10/10 11:34:25;;;;;;;9.10;4.37;;;;;;;18.45;29.24;100287.73;1598408;88;21860;-66